Current Weather

The Dalles Municipal Arpt

The Dalles Municipal Arpt, Washington (KDLS)

Report from: Thursday, May 19, 2022 10:53 AM PDT
Current time: Thursday, May 19, 2022 11:38 AM PDT

Nearby weather
Weather history
Weather forecast

Temperature13.9°C (57.0°F)
Dew point2.2°C (36.0°F)
Winds 19 kts (9.8 m/s, 21.9 mph) West-Northwest (300°)
Wind gusts 31 kts (15.9 m/s, 35.7 mph)
Peak wind 31 kts (15.9 m/s, 35.7 mph) Northwest (310°) at 10:24
Visibility10 mi. (16.1 km)
Clouds Sky clear
Altimeter30.16 in.Hg (1021 mB)
Precip last 3 hoursTrace
Relative humidity45 %
Density altitude-295 ft. (-90 m)
Sea-level pressure102.1 kPa (1021 mB, 30.16 in.Hg)
Max temp last 6 hours14.4°C (57.9°F)
Min temp last 6 hours8.3°C (46.9°F)
Remarks Fully automated report
Automated weather observing station with precipitation discriminator
Pressure rising more quickly
Flight conditions Visual Meteorological Conditions
Raw dataKDLS 191753Z AUTO 30019G31KT 10SM CLR 14/02 A3016 RMK AO2 PK WND 31031/1724 SLP213 60000 T01390022 10144 20083 53006
An error has occurred. This application may no longer respond until reloaded. Reload 🗙